Belomorsk, Russia
Current Conditions -  °F | °C
As of 9:00 AM on Thursday 29 Jan 2015 (Local Time) from ULAA Reporting Station
Moderate Snow Moderate Snow  
Wind Chill: 19°   Ceiling: 500
Heat Index: 28°   Visibility: 0.93mi
Dew Point: 28°   Wind: 11mph
Humidity: 100%   Direction: 240°WSW
Pressure: 29.21"   Gusts: 18mph
Location:  64.53°N, 34.77°E
Report Text: ULAA 290600Z 24005G08MPS 190V280 1500 R26/1500D SN BLSN OVC005M02/M02 Q0989 TEMPO 0400 +SHSN BLSN BKN002CB RMK QBB170 QFE741/0988SC037
Loading
Personal Weather Stations






























Interactive Weather Map New forecast layout! Learn more

10-Day Weather Forecast

Advertisements
Track Severe Weather on mobile